sensor_id;sensor_type;location;lat;lon;timestamp;P1;durP1;ratioP1;P2;durP2;ratioP2
16735;SDS011;17990;49.548;9.730;2023-08-06T00:01:57;2.83;;;1.87;;
16735;SDS011;17990;49.548;9.730;2023-08-06T00:04:23;3.57;;;1.70;;
16735;SDS011;17990;49.548;9.730;2023-08-06T00:06:50;3.60;;;1.80;;
16735;SDS011;17990;49.548;9.730;2023-08-06T00:09:17;2.53;;;1.70;;
16735;SDS011;17990;49.548;9.730;2023-08-06T00:11:45;2.60;;;1.80;;
16735;SDS011;17990;49.548;9.730;2023-08-06T00:14:12;3.53;;;1.90;;
16735;SDS011;17990;49.548;9.730;2023-08-06T00:16:40;3.30;;;1.50;;
16735;SDS011;17990;49.548;9.730;2023-08-06T00:19:08;3.73;;;1.93;;
16735;SDS011;17990;49.548;9.730;2023-08-06T00:21:35;5.43;;;1.90;;
16735;SDS011;17990;49.548;9.730;2023-08-06T00:24:02;3.13;;;1.73;;
16735;SDS011;17990;49.548;9.730;2023-08-06T00:26:29;2.70;;;1.80;;
16735;SDS011;17990;49.548;9.730;2023-08-06T00:28:57;2.87;;;1.97;;
16735;SDS011;17990;49.548;9.730;2023-08-06T00:31:23;3.77;;;1.83;;
16735;SDS011;17990;49.548;9.730;2023-08-06T00:33:50;3.80;;;1.80;;
16735;SDS011;17990;49.548;9.730;2023-08-06T00:36:17;3.20;;;1.80;;
16735;SDS011;17990;49.548;9.730;2023-08-06T00:38:43;2.03;;;1.83;;
16735;SDS011;17990;49.548;9.730;2023-08-06T00:41:10;2.13;;;1.90;;
16735;SDS011;17990;49.548;9.730;2023-08-06T00:43:37;2.33;;;1.63;;
16735;SDS011;17990;49.548;9.730;2023-08-06T00:46:05;4.53;;;1.90;;
16735;SDS011;17990;49.548;9.730;2023-08-06T00:48:32;3.80;;;1.60;;
16735;SDS011;17990;49.548;9.730;2023-08-06T00:50:59;2.03;;;1.83;;
16735;SDS011;17990;49.548;9.730;2023-08-06T00:53:27;3.57;;;1.73;;
16735;SDS011;17990;49.548;9.730;2023-08-06T00:55:54;3.30;;;1.80;;
16735;SDS011;17990;49.548;9.730;2023-08-06T00:58:21;3.73;;;1.70;;
16735;SDS011;17990;49.548;9.730;2023-08-06T01:00:48;2.37;;;1.90;;
16735;SDS011;17990;49.548;9.730;2023-08-06T01:03:16;2.30;;;2.03;;
16735;SDS011;17990;49.548;9.730;2023-08-06T01:05:42;4.57;;;1.77;;
16735;SDS011;17990;49.548;9.730;2023-08-06T01:08:12;2.70;;;1.70;;
16735;SDS011;17990;49.548;9.730;2023-08-06T01:10:46;2.83;;;1.83;;
16735;SDS011;17990;49.548;9.730;2023-08-06T01:13:24;2.80;;;1.87;;
16735;SDS011;17990;49.548;9.730;2023-08-06T01:15:58;3.43;;;2.00;;
16735;SDS011;17990;49.548;9.730;2023-08-06T01:18:27;3.27;;;1.77;;
16735;SDS011;17990;49.548;9.730;2023-08-06T01:20:56;2.07;;;1.80;;
16735;SDS011;17990;49.548;9.730;2023-08-06T01:23:22;3.13;;;1.57;;
16735;SDS011;17990;49.548;9.730;2023-08-06T01:25:53;2.80;;;1.83;;
16735;SDS011;17990;49.548;9.730;2023-08-06T01:28:27;3.63;;;2.10;;
16735;SDS011;17990;49.548;9.730;2023-08-06T01:31:00;2.03;;;1.83;;
16735;SDS011;17990;49.548;9.730;2023-08-06T01:33:31;2.20;;;1.87;;
16735;SDS011;17990;49.548;9.730;2023-08-06T01:36:00;2.30;;;1.90;;
16735;SDS011;17990;49.548;9.730;2023-08-06T01:38:28;3.93;;;1.97;;
16735;SDS011;17990;49.548;9.730;2023-08-06T01:40:55;3.80;;;2.50;;
16735;SDS011;17990;49.548;9.730;2023-08-06T01:43:21;4.03;;;2.20;;
16735;SDS011;17990;49.548;9.730;2023-08-06T01:45:48;3.83;;;2.60;;
16735;SDS011;17990;49.548;9.730;2023-08-06T01:48:15;3.47;;;2.13;;
16735;SDS011;17990;49.548;9.730;2023-08-06T01:50:41;3.87;;;2.17;;
16735;SDS011;17990;49.548;9.730;2023-08-06T01:53:10;6.83;;;2.20;;
16735;SDS011;17990;49.548;9.730;2023-08-06T01:55:36;2.67;;;2.03;;
16735;SDS011;17990;49.548;9.730;2023-08-06T01:58:03;2.87;;;2.30;;
16735;SDS011;17990;49.548;9.730;2023-08-06T02:00:30;5.17;;;2.60;;
16735;SDS011;17990;49.548;9.730;2023-08-06T02:02:57;4.73;;;2.50;;
16735;SDS011;17990;49.548;9.730;2023-08-06T02:05:23;4.47;;;2.50;;
16735;SDS011;17990;49.548;9.730;2023-08-06T02:07:50;2.87;;;2.20;;
16735;SDS011;17990;49.548;9.730;2023-08-06T02:10:18;3.40;;;2.40;;
16735;SDS011;17990;49.548;9.730;2023-08-06T02:12:45;2.47;;;2.27;;
16735;SDS011;17990;49.548;9.730;2023-08-06T02:15:11;2.73;;;2.10;;
16735;SDS011;17990;49.548;9.730;2023-08-06T02:17:38;5.27;;;2.27;;
16735;SDS011;17990;49.548;9.730;2023-08-06T02:20:05;3.03;;;2.23;;
16735;SDS011;17990;49.548;9.730;2023-08-06T02:22:33;3.40;;;2.43;;
16735;SDS011;17990;49.548;9.730;2023-08-06T02:24:59;4.33;;;2.50;;
16735;SDS011;17990;49.548;9.730;2023-08-06T02:27:28;2.20;;;2.00;;
16735;SDS011;17990;49.548;9.730;2023-08-06T02:29:54;3.73;;;2.30;;
16735;SDS011;17990;49.548;9.730;2023-08-06T02:32:21;2.60;;;2.40;;
16735;SDS011;17990;49.548;9.730;2023-08-06T02:34:48;2.60;;;2.40;;
16735;SDS011;17990;49.548;9.730;2023-08-06T02:37:15;4.20;;;2.40;;
16735;SDS011;17990;49.548;9.730;2023-08-06T02:39:41;3.43;;;2.63;;
16735;SDS011;17990;49.548;9.730;2023-08-06T02:42:08;2.87;;;2.53;;
16735;SDS011;17990;49.548;9.730;2023-08-06T02:44:36;2.47;;;2.17;;
16735;SDS011;17990;49.548;9.730;2023-08-06T02:47:03;4.00;;;2.70;;
16735;SDS011;17990;49.548;9.730;2023-08-06T02:49:31;4.97;;;2.77;;
16735;SDS011;17990;49.548;9.730;2023-08-06T02:51:57;3.43;;;2.73;;
16735;SDS011;17990;49.548;9.730;2023-08-06T02:54:24;3.60;;;2.67;;
16735;SDS011;17990;49.548;9.730;2023-08-06T02:56:51;3.97;;;2.50;;
16735;SDS011;17990;49.548;9.730;2023-08-06T02:59:17;4.00;;;2.47;;
16735;SDS011;17990;49.548;9.730;2023-08-06T03:01:45;2.90;;;2.13;;
16735;SDS011;17990;49.548;9.730;2023-08-06T03:04:12;2.13;;;1.93;;
16735;SDS011;17990;49.548;9.730;2023-08-06T03:06:39;3.03;;;2.10;;
16735;SDS011;17990;49.548;9.730;2023-08-06T03:09:05;2.30;;;2.10;;
16735;SDS011;17990;49.548;9.730;2023-08-06T03:11:32;2.73;;;2.20;;
16735;SDS011;17990;49.548;9.730;2023-08-06T03:13:59;3.40;;;2.20;;
16735;SDS011;17990;49.548;9.730;2023-08-06T03:16:25;4.07;;;2.50;;
16735;SDS011;17990;49.548;9.730;2023-08-06T03:18:54;3.03;;;2.30;;
16735;SDS011;17990;49.548;9.730;2023-08-06T03:21:20;5.27;;;2.27;;
16735;SDS011;17990;49.548;9.730;2023-08-06T03:23:47;3.73;;;2.20;;
16735;SDS011;17990;49.548;9.730;2023-08-06T03:26:14;4.17;;;2.60;;
16735;SDS011;17990;49.548;9.730;2023-08-06T03:28:41;4.43;;;2.50;;
16735;SDS011;17990;49.548;9.730;2023-08-06T03:31:08;2.30;;;2.10;;
16735;SDS011;17990;49.548;9.730;2023-08-06T03:33:35;2.70;;;2.13;;
16735;SDS011;17990;49.548;9.730;2023-08-06T03:36:03;2.93;;;2.30;;
16735;SDS011;17990;49.548;9.730;2023-08-06T03:38:30;3.33;;;2.40;;
16735;SDS011;17990;49.548;9.730;2023-08-06T03:40:57;2.57;;;2.13;;
16735;SDS011;17990;49.548;9.730;2023-08-06T03:43:24;3.77;;;2.30;;
16735;SDS011;17990;49.548;9.730;2023-08-06T03:45:50;3.50;;;2.63;;
16735;SDS011;17990;49.548;9.730;2023-08-06T03:48:17;3.30;;;2.27;;
16735;SDS011;17990;49.548;9.730;2023-08-06T03:50:44;4.17;;;2.47;;
16735;SDS011;17990;49.548;9.730;2023-08-06T03:53:12;2.33;;;2.13;;
16735;SDS011;17990;49.548;9.730;2023-08-06T03:55:38;3.30;;;2.17;;
16735;SDS011;17990;49.548;9.730;2023-08-06T03:58:05;4.40;;;2.30;;
16735;SDS011;17990;49.548;9.730;2023-08-06T04:00:32;4.43;;;2.37;;
16735;SDS011;17990;49.548;9.730;2023-08-06T04:02:59;3.80;;;2.20;;
16735;SDS011;17990;49.548;9.730;2023-08-06T04:05:25;2.53;;;1.90;;
16735;SDS011;17990;49.548;9.730;2023-08-06T04:07:52;3.23;;;2.30;;
16735;SDS011;17990;49.548;9.730;2023-08-06T04:10:20;3.50;;;2.07;;
16735;SDS011;17990;49.548;9.730;2023-08-06T04:12:47;2.57;;;1.93;;
16735;SDS011;17990;49.548;9.730;2023-08-06T04:15:13;3.70;;;2.20;;
16735;SDS011;17990;49.548;9.730;2023-08-06T04:17:40;2.37;;;2.13;;
16735;SDS011;17990;49.548;9.730;2023-08-06T04:20:07;6.13;;;2.70;;
16735;SDS011;17990;49.548;9.730;2023-08-06T04:22:34;3.20;;;2.13;;
16735;SDS011;17990;49.548;9.730;2023-08-06T04:25:01;3.70;;;2.17;;
16735;SDS011;17990;49.548;9.730;2023-08-06T04:27:29;3.37;;;2.17;;
16735;SDS011;17990;49.548;9.730;2023-08-06T04:29:56;2.33;;;2.10;;
16735;SDS011;17990;49.548;9.730;2023-08-06T04:32:23;4.77;;;1.90;;
16735;SDS011;17990;49.548;9.730;2023-08-06T04:34:51;3.27;;;2.10;;
16735;SDS011;17990;49.548;9.730;2023-08-06T04:37:17;2.97;;;1.80;;
16735;SDS011;17990;49.548;9.730;2023-08-06T04:39:44;3.60;;;2.00;;
16735;SDS011;17990;49.548;9.730;2023-08-06T04:42:11;1.83;;;1.47;;
16735;SDS011;17990;49.548;9.730;2023-08-06T04:44:39;3.37;;;1.80;;
16735;SDS011;17990;49.548;9.730;2023-08-06T04:47:06;4.70;;;1.97;;
16735;SDS011;17990;49.548;9.730;2023-08-06T04:49:32;2.23;;;2.03;;
16735;SDS011;17990;49.548;9.730;2023-08-06T04:51:59;2.10;;;1.83;;
16735;SDS011;17990;49.548;9.730;2023-08-06T04:54:26;4.10;;;2.00;;
16735;SDS011;17990;49.548;9.730;2023-08-06T04:56:53;6.40;;;1.90;;
16735;SDS011;17990;49.548;9.730;2023-08-06T04:59:20;4.03;;;2.20;;
16735;SDS011;17990;49.548;9.730;2023-08-06T05:01:48;2.87;;;1.77;;
16735;SDS011;17990;49.548;9.730;2023-08-06T05:04:14;2.97;;;1.60;;
16735;SDS011;17990;49.548;9.730;2023-08-06T05:06:41;3.37;;;2.20;;
16735;SDS011;17990;49.548;9.730;2023-08-06T05:09:08;4.00;;;1.77;;
16735;SDS011;17990;49.548;9.730;2023-08-06T05:11:34;1.87;;;1.50;;
16735;SDS011;17990;49.548;9.730;2023-08-06T05:14:01;2.53;;;1.90;;
16735;SDS011;17990;49.548;9.730;2023-08-06T05:16:28;2.90;;;1.67;;
16735;SDS011;17990;49.548;9.730;2023-08-06T05:18:56;3.77;;;1.70;;
16735;SDS011;17990;49.548;9.730;2023-08-06T05:21:23;1.97;;;1.60;;
16735;SDS011;17990;49.548;9.730;2023-08-06T05:23:49;2.63;;;2.00;;
16735;SDS011;17990;49.548;9.730;2023-08-06T05:26:16;4.50;;;1.70;;
16735;SDS011;17990;49.548;9.730;2023-08-06T05:28:44;2.77;;;1.90;;
16735;SDS011;17990;49.548;9.730;2023-08-06T05:31:11;3.43;;;1.57;;
16735;SDS011;17990;49.548;9.730;2023-08-06T05:33:38;3.03;;;1.67;;
16735;SDS011;17990;49.548;9.730;2023-08-06T05:36:06;5.07;;;1.20;;
16735;SDS011;17990;49.548;9.730;2023-08-06T05:38:32;2.83;;;1.17;;
16735;SDS011;17990;49.548;9.730;2023-08-06T05:40:59;3.23;;;1.63;;
16735;SDS011;17990;49.548;9.730;2023-08-06T05:43:26;3.67;;;1.57;;
16735;SDS011;17990;49.548;9.730;2023-08-06T05:45:53;2.77;;;1.23;;
16735;SDS011;17990;49.548;9.730;2023-08-06T05:48:19;3.03;;;1.23;;
16735;SDS011;17990;49.548;9.730;2023-08-06T05:50:47;2.07;;;1.20;;
16735;SDS011;17990;49.548;9.730;2023-08-06T05:53:15;4.87;;;1.60;;
16735;SDS011;17990;49.548;9.730;2023-08-06T05:55:42;5.17;;;1.50;;
16735;SDS011;17990;49.548;9.730;2023-08-06T05:58:09;4.83;;;1.60;;
16735;SDS011;17990;49.548;9.730;2023-08-06T06:00:36;1.87;;;1.30;;
16735;SDS011;17990;49.548;9.730;2023-08-06T06:03:03;4.40;;;1.53;;
16735;SDS011;17990;49.548;9.730;2023-08-06T06:05:29;1.90;;;1.33;;
16735;SDS011;17990;49.548;9.730;2023-08-06T06:07:56;4.50;;;1.43;;
16735;SDS011;17990;49.548;9.730;2023-08-06T06:10:24;3.43;;;1.60;;
16735;SDS011;17990;49.548;9.730;2023-08-06T06:12:51;6.23;;;1.57;;
16735;SDS011;17990;49.548;9.730;2023-08-06T06:15:17;4.03;;;1.40;;
16735;SDS011;17990;49.548;9.730;2023-08-06T06:17:44;3.90;;;1.20;;
16735;SDS011;17990;49.548;9.730;2023-08-06T06:20:11;2.33;;;1.37;;
16735;SDS011;17990;49.548;9.730;2023-08-06T06:22:38;2.83;;;1.20;;
16735;SDS011;17990;49.548;9.730;2023-08-06T06:25:05;2.27;;;1.20;;
16735;SDS011;17990;49.548;9.730;2023-08-06T06:27:33;1.90;;;1.00;;
16735;SDS011;17990;49.548;9.730;2023-08-06T06:30:00;4.50;;;1.00;;
16735;SDS011;17990;49.548;9.730;2023-08-06T06:32:27;3.93;;;1.20;;
16735;SDS011;17990;49.548;9.730;2023-08-06T06:34:54;2.97;;;1.10;;
16735;SDS011;17990;49.548;9.730;2023-08-06T06:37:21;2.83;;;0.90;;
16735;SDS011;17990;49.548;9.730;2023-08-06T06:39:48;2.37;;;1.00;;
16735;SDS011;17990;49.548;9.730;2023-08-06T06:42:14;2.20;;;0.73;;
16735;SDS011;17990;49.548;9.730;2023-08-06T06:44:42;2.67;;;1.00;;
16735;SDS011;17990;49.548;9.730;2023-08-06T06:47:09;2.13;;;1.20;;
16735;SDS011;17990;49.548;9.730;2023-08-06T06:49:36;2.33;;;0.80;;
16735;SDS011;17990;49.548;9.730;2023-08-06T06:52:03;3.53;;;1.10;;
16735;SDS011;17990;49.548;9.730;2023-08-06T06:54:30;2.70;;;1.10;;
16735;SDS011;17990;49.548;9.730;2023-08-06T06:56:57;3.23;;;1.10;;
16735;SDS011;17990;49.548;9.730;2023-08-06T06:59:24;3.87;;;0.80;;
16735;SDS011;17990;49.548;9.730;2023-08-06T07:01:52;1.60;;;0.77;;
16735;SDS011;17990;49.548;9.730;2023-08-06T07:04:18;2.37;;;0.80;;
16735;SDS011;17990;49.548;9.730;2023-08-06T07:06:45;1.83;;;0.90;;
16735;SDS011;17990;49.548;9.730;2023-08-06T07:09:12;1.57;;;0.77;;
16735;SDS011;17990;49.548;9.730;2023-08-06T07:11:38;2.30;;;0.90;;
16735;SDS011;17990;49.548;9.730;2023-08-06T07:14:08;3.07;;;1.13;;
16735;SDS011;17990;49.548;9.730;2023-08-06T07:16:35;2.03;;;1.00;;
16735;SDS011;17990;49.548;9.730;2023-08-06T07:19:03;2.30;;;0.80;;
16735;SDS011;17990;49.548;9.730;2023-08-06T07:21:30;2.60;;;0.83;;
16735;SDS011;17990;49.548;9.730;2023-08-06T07:23:57;1.30;;;0.80;;
16735;SDS011;17990;49.548;9.730;2023-08-06T07:26:25;1.30;;;0.60;;
16735;SDS011;17990;49.548;9.730;2023-08-06T07:28:51;1.50;;;0.73;;
16735;SDS011;17990;49.548;9.730;2023-08-06T07:31:18;2.43;;;0.70;;
16735;SDS011;17990;49.548;9.730;2023-08-06T07:33:45;1.97;;;0.70;;
16735;SDS011;17990;49.548;9.730;2023-08-06T07:36:13;1.00;;;0.63;;
16735;SDS011;17990;49.548;9.730;2023-08-06T07:38:41;1.93;;;0.50;;
16735;SDS011;17990;49.548;9.730;2023-08-06T07:41:08;2.23;;;0.40;;
16735;SDS011;17990;49.548;9.730;2023-08-06T07:43:35;0.80;;;0.60;;
16735;SDS011;17990;49.548;9.730;2023-08-06T07:46:01;4.00;;;0.90;;
16735;SDS011;17990;49.548;9.730;2023-08-06T07:48:28;3.67;;;0.50;;
16735;SDS011;17990;49.548;9.730;2023-08-06T07:50:55;1.37;;;0.53;;
16735;SDS011;17990;49.548;9.730;2023-08-06T07:53:24;0.43;;;0.30;;
16735;SDS011;17990;49.548;9.730;2023-08-06T07:55:54;1.03;;;0.40;;
16735;SDS011;17990;49.548;9.730;2023-08-06T07:58:23;1.33;;;0.47;;
16735;SDS011;17990;49.548;9.730;2023-08-06T08:00:50;0.87;;;0.30;;
16735;SDS011;17990;49.548;9.730;2023-08-06T08:03:17;2.33;;;0.57;;
16735;SDS011;17990;49.548;9.730;2023-08-06T08:05:44;2.20;;;0.40;;
16735;SDS011;17990;49.548;9.730;2023-08-06T08:08:11;2.47;;;0.50;;
16735;SDS011;17990;49.548;9.730;2023-08-06T08:10:40;1.73;;;0.40;;
16735;SDS011;17990;49.548;9.730;2023-08-06T08:13:06;2.37;;;0.30;;
16735;SDS011;17990;49.548;9.730;2023-08-06T08:15:34;0.77;;;0.30;;
16735;SDS011;17990;49.548;9.730;2023-08-06T08:18:00;2.73;;;0.43;;
16735;SDS011;17990;49.548;9.730;2023-08-06T08:20:27;1.00;;;0.23;;
16735;SDS011;17990;49.548;9.730;2023-08-06T08:22:57;0.40;;;0.23;;
16735;SDS011;17990;49.548;9.730;2023-08-06T08:25:24;1.10;;;0.30;;
16735;SDS011;17990;49.548;9.730;2023-08-06T08:27:53;0.97;;;0.27;;
16735;SDS011;17990;49.548;9.730;2023-08-06T08:30:20;0.73;;;0.30;;
16735;SDS011;17990;49.548;9.730;2023-08-06T08:32:47;0.83;;;0.40;;
16735;SDS011;17990;49.548;9.730;2023-08-06T08:35:14;0.53;;;0.20;;
16735;SDS011;17990;49.548;9.730;2023-08-06T08:37:41;0.50;;;0.30;;
16735;SDS011;17990;49.548;9.730;2023-08-06T08:40:08;1.00;;;0.50;;
16735;SDS011;17990;49.548;9.730;2023-08-06T08:42:35;0.20;;;0.20;;
16735;SDS011;17990;49.548;9.730;2023-08-06T08:45:04;0.40;;;0.30;;
16735;SDS011;17990;49.548;9.730;2023-08-06T08:47:36;1.33;;;0.57;;
16735;SDS011;17990;49.548;9.730;2023-08-06T08:50:04;1.10;;;0.50;;
16735;SDS011;17990;49.548;9.730;2023-08-06T08:52:32;1.13;;;0.30;;
16735;SDS011;17990;49.548;9.730;2023-08-06T08:55:01;0.60;;;0.40;;
16735;SDS011;17990;49.548;9.730;2023-08-06T08:57:28;1.97;;;0.43;;
16735;SDS011;17990;49.548;9.730;2023-08-06T08:59:55;0.60;;;0.37;;
16735;SDS011;17990;49.548;9.730;2023-08-06T09:02:23;0.30;;;0.20;;
16735;SDS011;17990;49.548;9.730;2023-08-06T09:04:54;0.77;;;0.33;;
16735;SDS011;17990;49.548;9.730;2023-08-06T09:07:24;0.50;;;0.20;;
16735;SDS011;17990;49.548;9.730;2023-08-06T09:09:52;0.30;;;0.20;;
16735;SDS011;17990;49.548;9.730;2023-08-06T09:12:20;0.20;;;0.10;;
16735;SDS011;17990;49.548;9.730;2023-08-06T09:14:48;0.37;;;0.03;;
16735;SDS011;17990;49.548;9.730;2023-08-06T09:17:15;0.43;;;0.43;;
16735;SDS011;17990;49.548;9.730;2023-08-06T09:19:46;0.40;;;0.20;;
16735;SDS011;17990;49.548;9.730;2023-08-06T09:22:14;1.20;;;0.60;;
16735;SDS011;17990;49.548;9.730;2023-08-06T09:24:41;0.43;;;0.20;;
16735;SDS011;17990;49.548;9.730;2023-08-06T09:27:11;0.27;;;0.10;;
16735;SDS011;17990;49.548;9.730;2023-08-06T09:29:40;0.73;;;0.20;;
16735;SDS011;17990;49.548;9.730;2023-08-06T09:32:08;0.67;;;0.20;;
16735;SDS011;17990;49.548;9.730;2023-08-06T09:34:34;0.60;;;0.20;;
16735;SDS011;17990;49.548;9.730;2023-08-06T09:37:03;0.10;;;0.10;;
16735;SDS011;17990;49.548;9.730;2023-08-06T09:39:30;0.97;;;0.50;;
16735;SDS011;17990;49.548;9.730;2023-08-06T09:41:57;0.20;;;0.20;;
16735;SDS011;17990;49.548;9.730;2023-08-06T09:44:25;0.80;;;0.30;;
16735;SDS011;17990;49.548;9.730;2023-08-06T09:46:53;0.23;;;0.17;;
16735;SDS011;17990;49.548;9.730;2023-08-06T09:49:20;0.70;;;0.30;;
16735;SDS011;17990;49.548;9.730;2023-08-06T09:51:51;0.33;;;0.20;;
16735;SDS011;17990;49.548;9.730;2023-08-06T09:54:22;0.30;;;0.10;;
16735;SDS011;17990;49.548;9.730;2023-08-06T09:56:49;0.20;;;0.20;;
16735;SDS011;17990;49.548;9.730;2023-08-06T09:59:17;0.20;;;0.10;;
16735;SDS011;17990;49.548;9.730;2023-08-06T10:01:45;0.60;;;0.20;;
16735;SDS011;17990;49.548;9.730;2023-08-06T10:04:13;0.60;;;0.20;;
16735;SDS011;17990;49.548;9.730;2023-08-06T10:06:41;0.13;;;0.10;;
16735;SDS011;17990;49.548;9.730;2023-08-06T10:09:09;1.27;;;0.77;;
16735;SDS011;17990;49.548;9.730;2023-08-06T10:11:37;1.23;;;0.23;;
16735;SDS011;17990;49.548;9.730;2023-08-06T10:14:06;0.73;;;0.30;;
16735;SDS011;17990;49.548;9.730;2023-08-06T10:16:36;0.17;;;0.13;;
16735;SDS011;17990;49.548;9.730;2023-08-06T10:19:04;1.43;;;0.70;;
16735;SDS011;17990;49.548;9.730;2023-08-06T10:21:33;0.20;;;0.20;;
16735;SDS011;17990;49.548;9.730;2023-08-06T10:24:00;0.40;;;0.30;;
16735;SDS011;17990;49.548;9.730;2023-08-06T10:26:28;0.20;;;0.20;;
16735;SDS011;17990;49.548;9.730;2023-08-06T10:28:57;0.90;;;0.20;;
16735;SDS011;17990;49.548;9.730;2023-08-06T10:34:24;0.65;;;0.40;;
16735;SDS011;17990;49.548;9.730;2023-08-06T10:36:53;0.88;;;0.60;;
16735;SDS011;17990;49.548;9.730;2023-08-06T10:39:21;1.65;;;0.38;;
16735;SDS011;17990;49.548;9.730;2023-08-06T10:41:47;0.40;;;0.20;;
16735;SDS011;17990;49.548;9.730;2023-08-06T10:44:15;0.68;;;0.20;;
16735;SDS011;17990;49.548;9.730;2023-08-06T10:46:42;1.67;;;0.30;;
16735;SDS011;17990;49.548;9.730;2023-08-06T10:49:15;1.42;;;0.40;;
16735;SDS011;17990;49.548;9.730;2023-08-06T10:51:44;1.58;;;0.40;;
16735;SDS011;17990;49.548;9.730;2023-08-06T10:54:12;2.17;;;0.50;;
16735;SDS011;17990;49.548;9.730;2023-08-06T10:56:39;1.70;;;0.50;;
16735;SDS011;17990;49.548;9.730;2023-08-06T10:59:08;1.08;;;0.20;;
16735;SDS011;17990;49.548;9.730;2023-08-06T11:01:37;1.73;;;0.20;;
16735;SDS011;17990;49.548;9.730;2023-08-06T11:04:04;0.45;;;0.15;;
16735;SDS011;17990;49.548;9.730;2023-08-06T11:06:31;2.08;;;0.20;;
16735;SDS011;17990;49.548;9.730;2023-08-06T11:08:58;0.45;;;0.20;;
16735;SDS011;17990;49.548;9.730;2023-08-06T11:11:25;0.35;;;0.20;;
16735;SDS011;17990;49.548;9.730;2023-08-06T11:13:52;0.10;;;0.10;;
16735;SDS011;17990;49.548;9.730;2023-08-06T11:16:19;0.35;;;0.20;;
16735;SDS011;17990;49.548;9.730;2023-08-06T11:18:50;0.20;;;0.20;;
16735;SDS011;17990;49.548;9.730;2023-08-06T11:21:19;0.57;;;0.20;;
16735;SDS011;17990;49.548;9.730;2023-08-06T11:23:46;0.20;;;0.10;;
16735;SDS011;17990;49.548;9.730;2023-08-06T11:26:12;0.13;;;0.13;;
16735;SDS011;17990;49.548;9.730;2023-08-06T11:28:45;0.65;;;0.10;;
16735;SDS011;17990;49.548;9.730;2023-08-06T11:31:18;1.48;;;0.28;;
16735;SDS011;17990;49.548;9.730;2023-08-06T11:33:45;0.70;;;0.22;;
16735;SDS011;17990;49.548;9.730;2023-08-06T11:36:13;0.30;;;0.30;;
16735;SDS011;17990;49.548;9.730;2023-08-06T11:38:40;0.10;;;0.10;;
16735;SDS011;17990;49.548;9.730;2023-08-06T11:41:06;0.13;;;0.10;;
16735;SDS011;17990;49.548;9.730;2023-08-06T11:43:33;0.40;;;0.20;;
16735;SDS011;17990;49.548;9.730;2023-08-06T11:46:00;1.50;;;0.20;;
16735;SDS011;17990;49.548;9.730;2023-08-06T11:48:27;0.20;;;0.20;;
16735;SDS011;17990;49.548;9.730;2023-08-06T11:50:54;0.47;;;0.13;;
16735;SDS011;17990;49.548;9.730;2023-08-06T11:53:26;0.88;;;0.20;;
16735;SDS011;17990;49.548;9.730;2023-08-06T11:55:54;0.93;;;0.20;;
16735;SDS011;17990;49.548;9.730;2023-08-06T11:58:21;0.33;;;0.20;;
16735;SDS011;17990;49.548;9.730;2023-08-06T12:00:48;0.80;;;0.20;;
16735;SDS011;17990;49.548;9.730;2023-08-06T12:03:15;3.87;;;0.80;;
16735;SDS011;17990;49.548;9.730;2023-08-06T12:05:45;0.90;;;0.50;;
16735;SDS011;17990;49.548;9.730;2023-08-06T12:08:12;0.20;;;0.20;;
16735;SDS011;17990;49.548;9.730;2023-08-06T12:10:40;0.40;;;0.40;;
16735;SDS011;17990;49.548;9.730;2023-08-06T12:13:07;0.10;;;0.10;;
16735;SDS011;17990;49.548;9.730;2023-08-06T12:15:34;0.10;;;0.10;;
16735;SDS011;17990;49.548;9.730;2023-08-06T12:18:00;0.52;;;0.20;;
16735;SDS011;17990;49.548;9.730;2023-08-06T12:20:27;1.02;;;0.20;;
16735;SDS011;17990;49.548;9.730;2023-08-06T12:22:54;0.50;;;0.10;;
16735;SDS011;17990;49.548;9.730;2023-08-06T12:25:21;0.88;;;0.50;;
16735;SDS011;17990;49.548;9.730;2023-08-06T12:27:50;0.75;;;0.47;;
16735;SDS011;17990;49.548;9.730;2023-08-06T12:30:17;1.08;;;0.50;;
16735;SDS011;17990;49.548;9.730;2023-08-06T12:32:43;0.63;;;0.40;;
16735;SDS011;17990;49.548;9.730;2023-08-06T12:35:10;0.10;;;0.10;;
16735;SDS011;17990;49.548;9.730;2023-08-06T12:37:39;2.73;;;0.40;;
16735;SDS011;17990;49.548;9.730;2023-08-06T12:40:06;0.50;;;0.20;;
16735;SDS011;17990;49.548;9.730;2023-08-06T12:42:33;1.53;;;0.30;;
16735;SDS011;17990;49.548;9.730;2023-08-06T12:45:01;0.23;;;0.10;;
16735;SDS011;17990;49.548;9.730;2023-08-06T12:47:28;0.20;;;0.10;;
16735;SDS011;17990;49.548;9.730;2023-08-06T12:49:55;0.33;;;0.10;;
16735;SDS011;17990;49.548;9.730;2023-08-06T12:52:21;0.90;;;0.27;;
16735;SDS011;17990;49.548;9.730;2023-08-06T12:54:48;1.00;;;0.20;;
16735;SDS011;17990;49.548;9.730;2023-08-06T12:57:15;0.23;;;0.10;;
16735;SDS011;17990;49.548;9.730;2023-08-06T12:59:42;0.43;;;0.20;;
16735;SDS011;17990;49.548;9.730;2023-08-06T13:02:10;0.43;;;0.30;;
16735;SDS011;17990;49.548;9.730;2023-08-06T13:04:37;1.83;;;0.20;;
16735;SDS011;17990;49.548;9.730;2023-08-06T13:07:04;0.40;;;0.30;;
16735;SDS011;17990;49.548;9.730;2023-08-06T13:09:31;1.67;;;0.20;;
16735;SDS011;17990;49.548;9.730;2023-08-06T13:11:58;0.20;;;0.20;;
16735;SDS011;17990;49.548;9.730;2023-08-06T13:14:30;2.77;;;0.20;;
16735;SDS011;17990;49.548;9.730;2023-08-06T13:16:56;0.50;;;0.30;;
16735;SDS011;17990;49.548;9.730;2023-08-06T13:19:24;1.03;;;0.20;;
16735;SDS011;17990;49.548;9.730;2023-08-06T13:22:01;0.53;;;0.20;;
16735;SDS011;17990;49.548;9.730;2023-08-06T13:24:31;0.60;;;0.20;;
16735;SDS011;17990;49.548;9.730;2023-08-06T13:26:58;0.30;;;0.20;;
16735;SDS011;17990;49.548;9.730;2023-08-06T13:29:25;0.10;;;0.10;;
16735;SDS011;17990;49.548;9.730;2023-08-06T13:31:52;1.10;;;0.17;;
16735;SDS011;17990;49.548;9.730;2023-08-06T13:34:19;0.50;;;0.10;;
16735;SDS011;17990;49.548;9.730;2023-08-06T13:36:47;0.50;;;0.30;;
16735;SDS011;17990;49.548;9.730;2023-08-06T13:39:14;0.20;;;0.20;;
16735;SDS011;17990;49.548;9.730;2023-08-06T13:41:42;0.40;;;0.30;;
16735;SDS011;17990;49.548;9.730;2023-08-06T13:44:09;0.40;;;0.30;;
16735;SDS011;17990;49.548;9.730;2023-08-06T13:46:39;0.50;;;0.20;;
16735;SDS011;17990;49.548;9.730;2023-08-06T13:49:05;0.83;;;0.30;;
16735;SDS011;17990;49.548;9.730;2023-08-06T13:51:32;0.50;;;0.30;;
16735;SDS011;17990;49.548;9.730;2023-08-06T13:54:02;0.73;;;0.40;;
16735;SDS011;17990;49.548;9.730;2023-08-06T13:56:29;0.47;;;0.10;;
16735;SDS011;17990;49.548;9.730;2023-08-06T13:58:55;1.13;;;0.47;;
16735;SDS011;17990;49.548;9.730;2023-08-06T14:01:22;2.23;;;0.50;;
16735;SDS011;17990;49.548;9.730;2023-08-06T14:03:49;0.70;;;0.20;;
16735;SDS011;17990;49.548;9.730;2023-08-06T14:06:16;0.60;;;0.20;;
16735;SDS011;17990;49.548;9.730;2023-08-06T14:08:42;0.50;;;0.23;;
16735;SDS011;17990;49.548;9.730;2023-08-06T14:11:10;1.10;;;0.30;;
16735;SDS011;17990;49.548;9.730;2023-08-06T14:13:37;0.50;;;0.30;;
16735;SDS011;17990;49.548;9.730;2023-08-06T14:16:04;1.37;;;0.27;;
16735;SDS011;17990;49.548;9.730;2023-08-06T14:18:31;0.30;;;0.20;;
16735;SDS011;17990;49.548;9.730;2023-08-06T14:20:57;0.33;;;0.30;;
16735;SDS011;17990;49.548;9.730;2023-08-06T14:23:24;0.13;;;0.10;;
16735;SDS011;17990;49.548;9.730;2023-08-06T14:25:51;0.53;;;0.40;;
16735;SDS011;17990;49.548;9.730;2023-08-06T14:28:19;0.83;;;0.40;;
16735;SDS011;17990;49.548;9.730;2023-08-06T14:30:46;1.23;;;0.50;;
16735;SDS011;17990;49.548;9.730;2023-08-06T14:33:12;1.50;;;0.33;;
16735;SDS011;17990;49.548;9.730;2023-08-06T14:35:39;1.13;;;0.30;;
16735;SDS011;17990;49.548;9.730;2023-08-06T14:38:06;2.43;;;0.50;;
16735;SDS011;17990;49.548;9.730;2023-08-06T14:40:32;0.30;;;0.20;;
16735;SDS011;17990;49.548;9.730;2023-08-06T14:43:02;0.83;;;0.20;;
16735;SDS011;17990;49.548;9.730;2023-08-06T14:45:31;0.53;;;0.40;;
16735;SDS011;17990;49.548;9.730;2023-08-06T14:47:57;1.17;;;0.40;;
16735;SDS011;17990;49.548;9.730;2023-08-06T14:50:24;0.90;;;0.40;;
16735;SDS011;17990;49.548;9.730;2023-08-06T14:52:51;1.57;;;0.60;;